sensor_id;sensor_type;location;lat;lon;timestamp;temperature;humidity
23289;DHT22;11813;50.834;4.280;2022-12-24T00:02:18;11.50;99.90
23289;DHT22;11813;50.834;4.280;2022-12-24T00:04:44;11.60;99.90
23289;DHT22;11813;50.834;4.280;2022-12-24T00:07:09;11.50;99.90
23289;DHT22;11813;50.834;4.280;2022-12-24T00:09:35;11.40;99.90
23289;DHT22;11813;50.834;4.280;2022-12-24T00:12:01;11.50;99.90
23289;DHT22;11813;50.834;4.280;2022-12-24T00:14:26;11.50;99.90
23289;DHT22;11813;50.834;4.280;2022-12-24T00:16:52;11.50;99.90
23289;DHT22;11813;50.834;4.280;2022-12-24T00:19:17;11.40;99.90
23289;DHT22;11813;50.834;4.280;2022-12-24T00:21:43;11.50;99.90
23289;DHT22;11813;50.834;4.280;2022-12-24T00:24:09;11.50;99.90
23289;DHT22;11813;50.834;4.280;2022-12-24T00:26:34;11.50;99.90
23289;DHT22;11813;50.834;4.280;2022-12-24T00:29:00;11.40;99.90
23289;DHT22;11813;50.834;4.280;2022-12-24T00:31:26;11.30;99.90
23289;DHT22;11813;50.834;4.280;2022-12-24T00:33:52;11.40;99.90
23289;DHT22;11813;50.834;4.280;2022-12-24T00:36:18;11.30;99.90
23289;DHT22;11813;50.834;4.280;2022-12-24T00:38:44;11.40;99.90
23289;DHT22;11813;50.834;4.280;2022-12-24T00:41:10;11.50;99.90
23289;DHT22;11813;50.834;4.280;2022-12-24T00:44:01;11.50;99.90
23289;DHT22;11813;50.834;4.280;2022-12-24T00:46:29;11.40;99.90
23289;DHT22;11813;50.834;4.280;2022-12-24T00:48:55;11.40;99.90
23289;DHT22;11813;50.834;4.280;2022-12-24T00:51:21;11.40;99.90
23289;DHT22;11813;50.834;4.280;2022-12-24T00:53:47;11.40;99.90
23289;DHT22;11813;50.834;4.280;2022-12-24T00:56:13;11.40;99.90
23289;DHT22;11813;50.834;4.280;2022-12-24T00:58:38;11.40;99.90
23289;DHT22;11813;50.834;4.280;2022-12-24T01:01:05;11.40;99.90
23289;DHT22;11813;50.834;4.280;2022-12-24T01:03:31;11.30;99.90
23289;DHT22;11813;50.834;4.280;2022-12-24T01:06:07;11.30;99.90
23289;DHT22;11813;50.834;4.280;2022-12-24T01:08:33;11.30;99.90
23289;DHT22;11813;50.834;4.280;2022-12-24T01:11:01;11.20;99.90
23289;DHT22;11813;50.834;4.280;2022-12-24T01:13:26;11.20;99.90
23289;DHT22;11813;50.834;4.280;2022-12-24T01:15:52;11.20;99.90
23289;DHT22;11813;50.834;4.280;2022-12-24T01:18:18;11.20;99.90
23289;DHT22;11813;50.834;4.280;2022-12-24T01:20:43;11.10;99.90
23289;DHT22;11813;50.834;4.280;2022-12-24T01:23:09;10.90;99.90
23289;DHT22;11813;50.834;4.280;2022-12-24T01:25:39;10.80;99.90
23289;DHT22;11813;50.834;4.280;2022-12-24T01:28:05;10.80;99.90
23289;DHT22;11813;50.834;4.280;2022-12-24T01:30:30;10.80;99.90
23289;DHT22;11813;50.834;4.280;2022-12-24T01:32:57;10.80;99.90
23289;DHT22;11813;50.834;4.280;2022-12-24T01:35:22;10.80;99.90
23289;DHT22;11813;50.834;4.280;2022-12-24T01:37:48;11.00;99.90
23289;DHT22;11813;50.834;4.280;2022-12-24T01:40:15;11.10;99.90
23289;DHT22;11813;50.834;4.280;2022-12-24T01:43:00;11.00;99.90
23289;DHT22;11813;50.834;4.280;2022-12-24T01:45:46;11.00;99.90
23289;DHT22;11813;50.834;4.280;2022-12-24T01:48:37;11.00;99.90
23289;DHT22;11813;50.834;4.280;2022-12-24T01:53:38;11.00;99.90
23289;DHT22;11813;50.834;4.280;2022-12-24T01:56:05;11.10;99.90
23289;DHT22;11813;50.834;4.280;2022-12-24T01:58:33;11.10;99.90
23289;DHT22;11813;50.834;4.280;2022-12-24T02:01:00;11.10;99.90
23289;DHT22;11813;50.834;4.280;2022-12-24T02:03:25;11.20;99.90
23289;DHT22;11813;50.834;4.280;2022-12-24T02:05:56;11.20;99.90
23289;DHT22;11813;50.834;4.280;2022-12-24T02:08:22;11.30;99.90
23289;DHT22;11813;50.834;4.280;2022-12-24T02:10:48;11.30;99.90
23289;DHT22;11813;50.834;4.280;2022-12-24T02:13:17;11.30;99.90
23289;DHT22;11813;50.834;4.280;2022-12-24T02:18:44;11.30;99.90
23289;DHT22;11813;50.834;4.280;2022-12-24T02:32:18;11.30;99.90
23289;DHT22;11813;50.834;4.280;2022-12-24T02:34:52;11.30;99.90
23289;DHT22;11813;50.834;4.280;2022-12-24T02:37:26;11.30;99.90
23289;DHT22;11813;50.834;4.280;2022-12-24T02:42:34;11.30;99.90
23289;DHT22;11813;50.834;4.280;2022-12-24T02:45:07;11.30;99.90
23289;DHT22;11813;50.834;4.280;2022-12-24T02:47:35;11.20;99.90
23289;DHT22;11813;50.834;4.280;2022-12-24T02:50:03;11.20;99.90
23289;DHT22;11813;50.834;4.280;2022-12-24T02:52:35;11.20;99.90
23289;DHT22;11813;50.834;4.280;2022-12-24T02:55:06;11.10;99.90
23289;DHT22;11813;50.834;4.280;2022-12-24T03:03:35;11.20;99.90
23289;DHT22;11813;50.834;4.280;2022-12-24T03:06:28;11.10;99.90
23289;DHT22;11813;50.834;4.280;2022-12-24T03:11:48;11.10;99.90
23289;DHT22;11813;50.834;4.280;2022-12-24T03:14:15;11.20;99.90
23289;DHT22;11813;50.834;4.280;2022-12-24T03:16:41;11.20;99.90
23289;DHT22;11813;50.834;4.280;2022-12-24T03:19:08;11.20;99.90
23289;DHT22;11813;50.834;4.280;2022-12-24T03:21:37;11.20;99.90
23289;DHT22;11813;50.834;4.280;2022-12-24T03:24:04;11.10;99.90
23289;DHT22;11813;50.834;4.280;2022-12-24T03:26:31;11.10;99.90
23289;DHT22;11813;50.834;4.280;2022-12-24T03:28:58;11.10;99.90
23289;DHT22;11813;50.834;4.280;2022-12-24T03:31:23;11.10;99.90
23289;DHT22;11813;50.834;4.280;2022-12-24T03:33:49;11.10;99.90
23289;DHT22;11813;50.834;4.280;2022-12-24T03:36:15;11.00;99.90
23289;DHT22;11813;50.834;4.280;2022-12-24T03:38:41;11.00;99.90
23289;DHT22;11813;50.834;4.280;2022-12-24T03:41:07;11.00;99.90
23289;DHT22;11813;50.834;4.280;2022-12-24T03:43:33;11.10;99.90
23289;DHT22;11813;50.834;4.280;2022-12-24T03:46:03;11.10;99.90
23289;DHT22;11813;50.834;4.280;2022-12-24T03:48:29;11.20;99.90
23289;DHT22;11813;50.834;4.280;2022-12-24T03:50:55;11.20;99.90
23289;DHT22;11813;50.834;4.280;2022-12-24T03:53:20;11.30;99.90
23289;DHT22;11813;50.834;4.280;2022-12-24T03:55:46;11.30;99.90
23289;DHT22;11813;50.834;4.280;2022-12-24T03:58:12;11.40;99.90
23289;DHT22;11813;50.834;4.280;2022-12-24T04:00:37;11.30;99.90
23289;DHT22;11813;50.834;4.280;2022-12-24T04:03:03;11.40;99.90
23289;DHT22;11813;50.834;4.280;2022-12-24T04:05:29;11.30;99.90
23289;DHT22;11813;50.834;4.280;2022-12-24T04:07:54;11.20;99.90
23289;DHT22;11813;50.834;4.280;2022-12-24T04:10:20;11.30;99.90
23289;DHT22;11813;50.834;4.280;2022-12-24T04:12:46;11.30;99.90
23289;DHT22;11813;50.834;4.280;2022-12-24T04:15:11;11.40;99.90
23289;DHT22;11813;50.834;4.280;2022-12-24T04:17:37;11.30;99.90
23289;DHT22;11813;50.834;4.280;2022-12-24T04:20:03;11.30;99.90
23289;DHT22;11813;50.834;4.280;2022-12-24T04:22:29;11.30;99.90
23289;DHT22;11813;50.834;4.280;2022-12-24T04:24:55;11.30;99.90
23289;DHT22;11813;50.834;4.280;2022-12-24T04:27:20;11.30;99.90
23289;DHT22;11813;50.834;4.280;2022-12-24T04:29:47;11.30;99.90
23289;DHT22;11813;50.834;4.280;2022-12-24T04:32:12;11.20;99.90
23289;DHT22;11813;50.834;4.280;2022-12-24T04:34:38;11.20;99.90
23289;DHT22;11813;50.834;4.280;2022-12-24T04:37:03;11.30;99.90
23289;DHT22;11813;50.834;4.280;2022-12-24T04:39:29;11.30;99.90
23289;DHT22;11813;50.834;4.280;2022-12-24T04:41:54;11.30;99.90
23289;DHT22;11813;50.834;4.280;2022-12-24T04:44:20;11.30;99.90
23289;DHT22;11813;50.834;4.280;2022-12-24T04:46:45;11.20;99.90
23289;DHT22;11813;50.834;4.280;2022-12-24T04:49:11;11.20;99.90
23289;DHT22;11813;50.834;4.280;2022-12-24T04:51:37;11.20;99.90
23289;DHT22;11813;50.834;4.280;2022-12-24T04:54:03;11.20;99.90
23289;DHT22;11813;50.834;4.280;2022-12-24T04:56:30;11.10;99.90
23289;DHT22;11813;50.834;4.280;2022-12-24T04:58:57;11.10;99.90
23289;DHT22;11813;50.834;4.280;2022-12-24T05:01:26;11.00;99.90
23289;DHT22;11813;50.834;4.280;2022-12-24T05:03:53;11.00;99.90
23289;DHT22;11813;50.834;4.280;2022-12-24T05:06:22;11.00;99.90
23289;DHT22;11813;50.834;4.280;2022-12-24T05:08:48;11.10;99.90
23289;DHT22;11813;50.834;4.280;2022-12-24T05:11:14;11.00;99.90
23289;DHT22;11813;50.834;4.280;2022-12-24T05:13:41;11.00;99.90
23289;DHT22;11813;50.834;4.280;2022-12-24T05:16:09;10.90;99.90
23289;DHT22;11813;50.834;4.280;2022-12-24T05:18:34;10.90;99.90
23289;DHT22;11813;50.834;4.280;2022-12-24T05:21:00;11.00;99.90
23289;DHT22;11813;50.834;4.280;2022-12-24T05:23:26;11.00;99.90
23289;DHT22;11813;50.834;4.280;2022-12-24T05:26:20;11.00;99.90
23289;DHT22;11813;50.834;4.280;2022-12-24T05:28:53;11.10;99.90
23289;DHT22;11813;50.834;4.280;2022-12-24T05:31:19;11.10;99.90
23289;DHT22;11813;50.834;4.280;2022-12-24T05:33:45;11.10;99.90
23289;DHT22;11813;50.834;4.280;2022-12-24T05:36:11;11.10;99.90
23289;DHT22;11813;50.834;4.280;2022-12-24T05:38:37;11.10;99.90
23289;DHT22;11813;50.834;4.280;2022-12-24T05:41:03;11.10;99.90
23289;DHT22;11813;50.834;4.280;2022-12-24T05:43:29;11.00;99.90
23289;DHT22;11813;50.834;4.280;2022-12-24T05:46:02;11.10;99.90
23289;DHT22;11813;50.834;4.280;2022-12-24T05:48:28;11.10;99.90
23289;DHT22;11813;50.834;4.280;2022-12-24T05:50:54;11.10;99.90
23289;DHT22;11813;50.834;4.280;2022-12-24T05:53:20;11.10;99.90
23289;DHT22;11813;50.834;4.280;2022-12-24T05:55:46;11.10;99.90
23289;DHT22;11813;50.834;4.280;2022-12-24T05:58:12;11.10;99.90
23289;DHT22;11813;50.834;4.280;2022-12-24T06:00:38;11.10;99.90
23289;DHT22;11813;50.834;4.280;2022-12-24T06:03:04;11.10;99.90
23289;DHT22;11813;50.834;4.280;2022-12-24T06:05:30;11.10;99.90
23289;DHT22;11813;50.834;4.280;2022-12-24T06:07:55;11.10;99.90
23289;DHT22;11813;50.834;4.280;2022-12-24T06:10:21;11.10;99.90
23289;DHT22;11813;50.834;4.280;2022-12-24T06:12:47;11.20;99.90
23289;DHT22;11813;50.834;4.280;2022-12-24T06:15:12;11.30;99.90
23289;DHT22;11813;50.834;4.280;2022-12-24T06:17:38;11.20;99.90
23289;DHT22;11813;50.834;4.280;2022-12-24T06:20:04;11.20;99.90
23289;DHT22;11813;50.834;4.280;2022-12-24T06:22:30;11.10;99.90
23289;DHT22;11813;50.834;4.280;2022-12-24T06:24:56;11.10;99.90
23289;DHT22;11813;50.834;4.280;2022-12-24T06:27:21;11.10;99.90
23289;DHT22;11813;50.834;4.280;2022-12-24T06:29:47;11.00;99.90
23289;DHT22;11813;50.834;4.280;2022-12-24T06:32:12;11.00;99.90
23289;DHT22;11813;50.834;4.280;2022-12-24T06:34:38;11.00;99.90
23289;DHT22;11813;50.834;4.280;2022-12-24T06:37:04;11.00;99.90
23289;DHT22;11813;50.834;4.280;2022-12-24T06:39:29;10.90;99.90
23289;DHT22;11813;50.834;4.280;2022-12-24T06:41:55;11.00;99.90
23289;DHT22;11813;50.834;4.280;2022-12-24T06:44:20;11.00;99.90
23289;DHT22;11813;50.834;4.280;2022-12-24T06:46:46;10.90;99.90
23289;DHT22;11813;50.834;4.280;2022-12-24T06:49:11;11.00;99.90
23289;DHT22;11813;50.834;4.280;2022-12-24T06:51:37;10.90;99.90
23289;DHT22;11813;50.834;4.280;2022-12-24T06:54:03;11.00;99.90
23289;DHT22;11813;50.834;4.280;2022-12-24T06:56:28;10.90;99.90
23289;DHT22;11813;50.834;4.280;2022-12-24T06:58:54;10.90;99.90
23289;DHT22;11813;50.834;4.280;2022-12-24T07:01:20;10.90;99.90
23289;DHT22;11813;50.834;4.280;2022-12-24T07:03:45;11.00;99.90
23289;DHT22;11813;50.834;4.280;2022-12-24T07:06:23;11.10;99.90
23289;DHT22;11813;50.834;4.280;2022-12-24T07:08:49;11.00;99.90
23289;DHT22;11813;50.834;4.280;2022-12-24T07:11:15;11.00;99.90
23289;DHT22;11813;50.834;4.280;2022-12-24T07:13:41;11.00;99.90
23289;DHT22;11813;50.834;4.280;2022-12-24T07:16:07;11.00;99.90
23289;DHT22;11813;50.834;4.280;2022-12-24T07:18:32;10.90;99.90
23289;DHT22;11813;50.834;4.280;2022-12-24T07:20:58;10.80;99.90
23289;DHT22;11813;50.834;4.280;2022-12-24T07:23:24;10.90;99.90
23289;DHT22;11813;50.834;4.280;2022-12-24T07:25:50;11.00;99.90
23289;DHT22;11813;50.834;4.280;2022-12-24T07:28:16;11.00;99.90
23289;DHT22;11813;50.834;4.280;2022-12-24T07:30:42;10.90;99.90
23289;DHT22;11813;50.834;4.280;2022-12-24T07:33:07;10.90;99.90
23289;DHT22;11813;50.834;4.280;2022-12-24T07:35:33;10.80;99.90
23289;DHT22;11813;50.834;4.280;2022-12-24T07:37:58;10.90;99.90
23289;DHT22;11813;50.834;4.280;2022-12-24T07:40:24;10.90;99.90
23289;DHT22;11813;50.834;4.280;2022-12-24T07:42:50;11.00;99.90
23289;DHT22;11813;50.834;4.280;2022-12-24T07:45:15;10.90;99.90
23289;DHT22;11813;50.834;4.280;2022-12-24T07:47:41;11.00;99.90
23289;DHT22;11813;50.834;4.280;2022-12-24T07:50:07;10.90;99.90
23289;DHT22;11813;50.834;4.280;2022-12-24T07:52:33;10.90;99.90
23289;DHT22;11813;50.834;4.280;2022-12-24T07:54:58;10.90;99.90
23289;DHT22;11813;50.834;4.280;2022-12-24T07:57:24;10.80;99.90
23289;DHT22;11813;50.834;4.280;2022-12-24T07:59:49;10.80;99.90
23289;DHT22;11813;50.834;4.280;2022-12-24T08:02:15;10.80;99.90
23289;DHT22;11813;50.834;4.280;2022-12-24T08:04:40;10.80;99.90
23289;DHT22;11813;50.834;4.280;2022-12-24T08:07:06;10.80;99.90
23289;DHT22;11813;50.834;4.280;2022-12-24T08:09:36;10.80;99.90
23289;DHT22;11813;50.834;4.280;2022-12-24T08:12:02;10.80;99.90
23289;DHT22;11813;50.834;4.280;2022-12-24T08:14:28;10.80;99.90
23289;DHT22;11813;50.834;4.280;2022-12-24T08:16:54;10.80;99.90
23289;DHT22;11813;50.834;4.280;2022-12-24T08:19:20;10.90;99.90
23289;DHT22;11813;50.834;4.280;2022-12-24T08:21:45;10.90;99.90
23289;DHT22;11813;50.834;4.280;2022-12-24T08:24:11;11.00;99.90
23289;DHT22;11813;50.834;4.280;2022-12-24T08:26:36;11.00;99.90
23289;DHT22;11813;50.834;4.280;2022-12-24T08:29:03;11.00;99.90
23289;DHT22;11813;50.834;4.280;2022-12-24T08:31:29;10.90;99.90
23289;DHT22;11813;50.834;4.280;2022-12-24T08:33:55;10.90;99.90
23289;DHT22;11813;50.834;4.280;2022-12-24T08:36:21;10.90;99.90
23289;DHT22;11813;50.834;4.280;2022-12-24T08:38:46;10.90;99.90
23289;DHT22;11813;50.834;4.280;2022-12-24T08:41:12;11.00;99.90
23289;DHT22;11813;50.834;4.280;2022-12-24T08:43:37;11.00;99.90
23289;DHT22;11813;50.834;4.280;2022-12-24T08:46:04;11.10;99.90
23289;DHT22;11813;50.834;4.280;2022-12-24T08:48:31;11.20;99.90
23289;DHT22;11813;50.834;4.280;2022-12-24T08:50:57;11.20;99.90
23289;DHT22;11813;50.834;4.280;2022-12-24T08:53:23;11.20;99.90
23289;DHT22;11813;50.834;4.280;2022-12-24T08:55:48;11.30;99.90
23289;DHT22;11813;50.834;4.280;2022-12-24T08:58:14;11.20;99.90
23289;DHT22;11813;50.834;4.280;2022-12-24T09:00:39;11.10;99.90
23289;DHT22;11813;50.834;4.280;2022-12-24T09:03:05;11.10;99.90
23289;DHT22;11813;50.834;4.280;2022-12-24T09:05:31;11.20;99.90
23289;DHT22;11813;50.834;4.280;2022-12-24T09:07:57;11.30;99.90
23289;DHT22;11813;50.834;4.280;2022-12-24T09:10:23;11.20;99.90
23289;DHT22;11813;50.834;4.280;2022-12-24T09:12:49;11.30;99.90
23289;DHT22;11813;50.834;4.280;2022-12-24T09:15:15;11.30;99.90
23289;DHT22;11813;50.834;4.280;2022-12-24T09:17:42;11.30;99.90
23289;DHT22;11813;50.834;4.280;2022-12-24T09:20:08;11.40;99.90
23289;DHT22;11813;50.834;4.280;2022-12-24T09:22:36;11.50;99.90
23289;DHT22;11813;50.834;4.280;2022-12-24T09:25:03;11.50;99.90
23289;DHT22;11813;50.834;4.280;2022-12-24T09:27:35;11.40;99.90
23289;DHT22;11813;50.834;4.280;2022-12-24T09:30:01;11.40;99.90
23289;DHT22;11813;50.834;4.280;2022-12-24T09:32:26;11.50;99.90
23289;DHT22;11813;50.834;4.280;2022-12-24T09:34:52;11.40;99.90
23289;DHT22;11813;50.834;4.280;2022-12-24T09:37:18;11.40;99.90
23289;DHT22;11813;50.834;4.280;2022-12-24T09:39:44;11.50;99.90
23289;DHT22;11813;50.834;4.280;2022-12-24T09:45:34;11.60;99.90
23289;DHT22;11813;50.834;4.280;2022-12-24T09:48:23;11.60;99.90
23289;DHT22;11813;50.834;4.280;2022-12-24T09:50:58;11.60;99.90
23289;DHT22;11813;50.834;4.280;2022-12-24T09:53:51;11.60;99.90
23289;DHT22;11813;50.834;4.280;2022-12-24T09:56:21;11.60;99.90
23289;DHT22;11813;50.834;4.280;2022-12-24T09:58:59;11.60;99.90
23289;DHT22;11813;50.834;4.280;2022-12-24T10:01:28;11.70;99.90
23289;DHT22;11813;50.834;4.280;2022-12-24T10:03:56;11.80;99.90
23289;DHT22;11813;50.834;4.280;2022-12-24T10:06:58;11.70;99.90
23289;DHT22;11813;50.834;4.280;2022-12-24T10:09:51;11.60;99.90
23289;DHT22;11813;50.834;4.280;2022-12-24T10:23:25;11.80;99.90
23289;DHT22;11813;50.834;4.280;2022-12-24T10:28:45;11.90;99.90
23289;DHT22;11813;50.834;4.280;2022-12-24T10:31:11;11.80;99.90
23289;DHT22;11813;50.834;4.280;2022-12-24T10:33:43;11.80;99.90
23289;DHT22;11813;50.834;4.280;2022-12-24T10:36:16;11.80;99.90
23289;DHT22;11813;50.834;4.280;2022-12-24T10:38:44;11.90;99.90
23289;DHT22;11813;50.834;4.280;2022-12-24T10:41:11;11.80;99.90
23289;DHT22;11813;50.834;4.280;2022-12-24T10:43:38;11.90;99.90
23289;DHT22;11813;50.834;4.280;2022-12-24T10:46:18;11.90;99.90
23289;DHT22;11813;50.834;4.280;2022-12-24T10:48:59;12.00;99.90
23289;DHT22;11813;50.834;4.280;2022-12-24T10:51:52;12.00;99.90
23289;DHT22;11813;50.834;4.280;2022-12-24T10:54:26;12.00;99.90
23289;DHT22;11813;50.834;4.280;2022-12-24T10:56:57;12.10;99.90
23289;DHT22;11813;50.834;4.280;2022-12-24T10:59:29;12.10;99.90
23289;DHT22;11813;50.834;4.280;2022-12-24T11:01:57;12.10;99.90
23289;DHT22;11813;50.834;4.280;2022-12-24T11:04:26;12.30;99.90
23289;DHT22;11813;50.834;4.280;2022-12-24T11:07:01;12.30;99.90
23289;DHT22;11813;50.834;4.280;2022-12-24T11:09:35;12.40;99.90
23289;DHT22;11813;50.834;4.280;2022-12-24T11:12:05;12.40;99.90
23289;DHT22;11813;50.834;4.280;2022-12-24T11:14:40;12.50;99.90
23289;DHT22;11813;50.834;4.280;2022-12-24T11:17:05;12.60;99.90
23289;DHT22;11813;50.834;4.280;2022-12-24T11:19:37;12.70;99.90
23289;DHT22;11813;50.834;4.280;2022-12-24T11:22:15;12.60;99.90
23289;DHT22;11813;50.834;4.280;2022-12-24T11:24:42;12.70;99.90
23289;DHT22;11813;50.834;4.280;2022-12-24T11:27:41;12.70;99.90
23289;DHT22;11813;50.834;4.280;2022-12-24T11:32:48;12.70;99.90
23289;DHT22;11813;50.834;4.280;2022-12-24T11:35:22;12.80;99.90
23289;DHT22;11813;50.834;4.280;2022-12-24T11:38:09;12.80;99.90
23289;DHT22;11813;50.834;4.280;2022-12-24T11:40:36;12.80;99.90
23289;DHT22;11813;50.834;4.280;2022-12-24T11:43:03;12.90;99.90
23289;DHT22;11813;50.834;4.280;2022-12-24T11:45:31;13.20;99.90
23289;DHT22;11813;50.834;4.280;2022-12-24T11:47:57;13.40;99.90
23289;DHT22;11813;50.834;4.280;2022-12-24T11:50:31;13.70;99.90
23289;DHT22;11813;50.834;4.280;2022-12-24T11:55:43;13.80;99.90
23289;DHT22;11813;50.834;4.280;2022-12-24T12:00:51;13.80;99.90
23289;DHT22;11813;50.834;4.280;2022-12-24T12:03:32;13.70;99.90
23289;DHT22;11813;50.834;4.280;2022-12-24T12:06:02;13.70;99.90
23289;DHT22;11813;50.834;4.280;2022-12-24T12:08:29;13.80;99.90
23289;DHT22;11813;50.834;4.280;2022-12-24T12:10:57;13.80;99.90
23289;DHT22;11813;50.834;4.280;2022-12-24T12:13:29;13.80;99.90
23289;DHT22;11813;50.834;4.280;2022-12-24T12:16:18;13.70;99.90
23289;DHT22;11813;50.834;4.280;2022-12-24T12:18:53;13.60;99.90
23289;DHT22;11813;50.834;4.280;2022-12-24T12:21:24;13.50;99.90
23289;DHT22;11813;50.834;4.280;2022-12-24T12:23:58;13.30;99.90
23289;DHT22;11813;50.834;4.280;2022-12-24T12:26:29;13.30;99.90
23289;DHT22;11813;50.834;4.280;2022-12-24T12:31:56;13.10;99.90
23289;DHT22;11813;50.834;4.280;2022-12-24T12:37:00;13.00;99.90
23289;DHT22;11813;50.834;4.280;2022-12-24T12:39:32;13.10;99.90
23289;DHT22;11813;50.834;4.280;2022-12-24T12:47:53;13.30;99.90
23289;DHT22;11813;50.834;4.280;2022-12-24T12:50:30;13.40;99.90
23289;DHT22;11813;50.834;4.280;2022-12-24T12:58:45;14.10;99.90
23289;DHT22;11813;50.834;4.280;2022-12-24T13:01:20;14.20;99.90
23289;DHT22;11813;50.834;4.280;2022-12-24T13:07:02;14.10;99.90
23289;DHT22;11813;50.834;4.280;2022-12-24T13:09:41;14.00;99.90
23289;DHT22;11813;50.834;4.280;2022-12-24T13:20:27;14.30;99.90
23289;DHT22;11813;50.834;4.280;2022-12-24T13:22:57;14.40;99.90
23289;DHT22;11813;50.834;4.280;2022-12-24T13:30:48;14.90;99.90
23289;DHT22;11813;50.834;4.280;2022-12-24T13:33:54;14.90;99.90
23289;DHT22;11813;50.834;4.280;2022-12-24T13:36:18;14.60;99.90
23289;DHT22;11813;50.834;4.280;2022-12-24T13:38:54;14.50;99.90
23289;DHT22;11813;50.834;4.280;2022-12-24T13:46:46;14.10;99.90
23289;DHT22;11813;50.834;4.280;2022-12-24T13:49:21;14.20;99.90
23289;DHT22;11813;50.834;4.280;2022-12-24T13:51:49;14.00;99.90
23289;DHT22;11813;50.834;4.280;2022-12-24T13:54:18;14.00;99.90
23289;DHT22;11813;50.834;4.280;2022-12-24T13:56:47;13.90;99.90
23289;DHT22;11813;50.834;4.280;2022-12-24T13:59:36;13.60;99.90
23289;DHT22;11813;50.834;4.280;2022-12-24T14:02:03;13.70;99.90
23289;DHT22;11813;50.834;4.280;2022-12-24T14:04:34;13.70;99.90
23289;DHT22;11813;50.834;4.280;2022-12-24T14:07:02;13.70;99.90
23289;DHT22;11813;50.834;4.280;2022-12-24T14:09:30;13.80;99.90
23289;DHT22;11813;50.834;4.280;2022-12-24T14:14:36;14.00;99.90
23289;DHT22;11813;50.834;4.280;2022-12-24T14:19:46;14.00;99.90
23289;DHT22;11813;50.834;4.280;2022-12-24T14:25:16;14.10;99.90
23289;DHT22;11813;50.834;4.280;2022-12-24T14:27:45;14.00;99.90
23289;DHT22;11813;50.834;4.280;2022-12-24T14:30:28;13.90;99.90
23289;DHT22;11813;50.834;4.280;2022-12-24T14:32:55;13.90;99.90
23289;DHT22;11813;50.834;4.280;2022-12-24T14:35:35;14.00;99.90
23289;DHT22;11813;50.834;4.280;2022-12-24T14:38:04;14.00;99.90
23289;DHT22;11813;50.834;4.280;2022-12-24T14:40:41;14.10;99.90
23289;DHT22;11813;50.834;4.280;2022-12-24T14:46:04;13.80;99.90
23289;DHT22;11813;50.834;4.280;2022-12-24T14:48:43;13.80;99.90
23289;DHT22;11813;50.834;4.280;2022-12-24T14:51:39;13.80;99.90
23289;DHT22;11813;50.834;4.280;2022-12-24T14:54:20;13.90;99.90
23289;DHT22;11813;50.834;4.280;2022-12-24T14:59:47;13.90;99.90
23289;DHT22;11813;50.834;4.280;2022-12-24T15:02:46;14.00;99.90
23289;DHT22;11813;50.834;4.280;2022-12-24T15:05:14;14.00;99.90
23289;DHT22;11813;50.834;4.280;2022-12-24T15:07:58;13.90;99.90
23289;DHT22;11813;50.834;4.280;2022-12-24T15:12:57;13.80;99.90
23289;DHT22;11813;50.834;4.280;2022-12-24T15:15:25;13.70;99.90
23289;DHT22;11813;50.834;4.280;2022-12-24T15:17:52;13.70;99.90
23289;DHT22;11813;50.834;4.280;2022-12-24T15:20:21;13.70;99.90
23289;DHT22;11813;50.834;4.280;2022-12-24T15:22:51;13.70;99.90
23289;DHT22;11813;50.834;4.280;2022-12-24T15:25:27;13.80;99.90
23289;DHT22;11813;50.834;4.280;2022-12-24T15:27:53;13.90;99.90
23289;DHT22;11813;50.834;4.280;2022-12-24T15:30:25;13.90;99.90
23289;DHT22;11813;50.834;4.280;2022-12-24T15:32:56;13.90;99.90
23289;DHT22;11813;50.834;4.280;2022-12-24T15:38:32;14.00;99.90
23289;DHT22;11813;50.834;4.280;2022-12-24T15:41:05;13.90;99.90
23289;DHT22;11813;50.834;4.280;2022-12-24T15:43:32;14.00;99.90
23289;DHT22;11813;50.834;4.280;2022-12-24T15:46:03;13.90;99.90
23289;DHT22;11813;50.834;4.280;2022-12-24T15:48:30;13.90;99.90
23289;DHT22;11813;50.834;4.280;2022-12-24T15:50:59;13.90;99.90
23289;DHT22;11813;50.834;4.280;2022-12-24T15:53:29;13.90;99.90
23289;DHT22;11813;50.834;4.280;2022-12-24T15:56:12;13.90;99.90
23289;DHT22;11813;50.834;4.280;2022-12-24T15:58:41;13.90;99.90
23289;DHT22;11813;50.834;4.280;2022-12-24T16:03:53;13.80;99.90
23289;DHT22;11813;50.834;4.280;2022-12-24T16:06:20;13.70;99.90
23289;DHT22;11813;50.834;4.280;2022-12-24T16:08:46;13.60;99.90
23289;DHT22;11813;50.834;4.280;2022-12-24T16:14:10;13.40;99.90
23289;DHT22;11813;50.834;4.280;2022-12-24T16:16:42;13.30;99.90
23289;DHT22;11813;50.834;4.280;2022-12-24T16:19:25;13.10;99.90
23289;DHT22;11813;50.834;4.280;2022-12-24T16:21:58;13.00;99.90
23289;DHT22;11813;50.834;4.280;2022-12-24T16:24:27;12.90;99.90
23289;DHT22;11813;50.834;4.280;2022-12-24T16:26:53;12.90;99.90
23289;DHT22;11813;50.834;4.280;2022-12-24T16:29:19;12.90;99.90
23289;DHT22;11813;50.834;4.280;2022-12-24T16:31:49;12.90;99.90
23289;DHT22;11813;50.834;4.280;2022-12-24T16:34:16;12.90;99.90
23289;DHT22;11813;50.834;4.280;2022-12-24T16:36:45;12.90;99.90
23289;DHT22;11813;50.834;4.280;2022-12-24T16:39:16;12.80;99.90
23289;DHT22;11813;50.834;4.280;2022-12-24T16:41:56;12.70;99.90
23289;DHT22;11813;50.834;4.280;2022-12-24T16:44:41;12.70;99.90
23289;DHT22;11813;50.834;4.280;2022-12-24T16:49:39;12.80;99.90
23289;DHT22;11813;50.834;4.280;2022-12-24T16:52:06;12.70;99.90
23289;DHT22;11813;50.834;4.280;2022-12-24T16:54:32;12.70;99.90
23289;DHT22;11813;50.834;4.280;2022-12-24T16:56:58;12.80;99.90
23289;DHT22;11813;50.834;4.280;2022-12-24T16:59:23;12.80;99.90
23289;DHT22;11813;50.834;4.280;2022-12-24T17:01:50;12.80;99.90
23289;DHT22;11813;50.834;4.280;2022-12-24T17:04:16;12.80;99.90
23289;DHT22;11813;50.834;4.280;2022-12-24T17:06:43;12.70;99.90
23289;DHT22;11813;50.834;4.280;2022-12-24T17:09:10;12.70;99.90
23289;DHT22;11813;50.834;4.280;2022-12-24T17:11:36;12.60;99.90
23289;DHT22;11813;50.834;4.280;2022-12-24T17:14:02;12.60;99.90
23289;DHT22;11813;50.834;4.280;2022-12-24T17:16:28;12.60;99.90
23289;DHT22;11813;50.834;4.280;2022-12-24T17:18:53;12.60;99.90
23289;DHT22;11813;50.834;4.280;2022-12-24T17:21:19;12.50;99.90
23289;DHT22;11813;50.834;4.280;2022-12-24T17:23:45;12.40;99.90
23289;DHT22;11813;50.834;4.280;2022-12-24T17:26:11;12.40;99.90
23289;DHT22;11813;50.834;4.280;2022-12-24T17:28:37;12.40;99.90
23289;DHT22;11813;50.834;4.280;2022-12-24T17:31:08;12.40;99.90
23289;DHT22;11813;50.834;4.280;2022-12-24T17:33:34;12.30;99.90
23289;DHT22;11813;50.834;4.280;2022-12-24T17:35:59;12.30;99.90
23289;DHT22;11813;50.834;4.280;2022-12-24T17:38:25;12.30;99.90
23289;DHT22;11813;50.834;4.280;2022-12-24T17:40:50;12.30;99.90
23289;DHT22;11813;50.834;4.280;2022-12-24T17:43:16;12.30;99.90